Time;durP1;ratioP1;P1;durP2;ratioP2;P2;SDS_P1;SDS_P2;PMS_P1;PMS_P2;Temp;Humidity;BMP_temperature;BMP_pressure;BME280_temperature;BME280_humidity;BME280_pressure;Samples;Min_cycle;Max_cycle;Signal;HPM_P1;HPM_P2
2022/08/13 00:00:11;;;;;;;8.00;4.30;;;;;14.10;96477.00;;;;8379297;28;20673;-71
2022/08/13 00:04:17;;;;;;;5.63;4.63;;;;;14.10;96479.00;;;;8367268;28;20228;-70
2022/08/13 00:08:25;;;;;;;4.35;3.95;;;;;14.10;96477.00;;;;8371491;28;20278;-71
2022/08/13 00:16:54;;;;;;;4.27;3.90;;;;;14.00;96473.00;;;;8377873;28;20220;-70
2022/08/13 00:21:01;;;;;;;5.20;4.43;;;;;14.00;96473.00;;;;8376406;28;20240;-72
2022/08/13 00:25:09;;;;;;;4.13;3.50;;;;;13.90;96473.00;;;;8369683;28;20227;-71
2022/08/13 00:29:12;;;;;;;6.17;3.93;;;;;13.90;96465.00;;;;8379738;28;20262;-72
2022/08/13 00:33:22;;;;;;;4.57;4.17;;;;;13.90;96466.00;;;;8381455;28;20244;-73
2022/08/13 00:37:48;;;;;;;4.53;4.10;;;;;13.80;96460.00;;;;8379004;28;20232;-71
2022/08/13 00:41:55;;;;;;;4.13;3.83;;;;;13.90;96455.00;;;;8380844;28;20972;-72
2022/08/13 00:46:04;;;;;;;7.43;3.78;;;;;13.90;96450.00;;;;8381665;28;20990;-71
2022/08/13 00:50:09;;;;;;;4.47;4.07;;;;;13.90;96438.00;;;;8369112;28;20223;-72
2022/08/13 00:54:17;;;;;;;5.05;4.43;;;;;13.90;96435.00;;;;8375955;28;20211;-72
2022/08/13 00:58:23;;;;;;;5.07;4.05;;;;;13.80;96437.00;;;;8388548;28;20220;-71
2022/08/13 01:02:28;;;;;;;5.10;4.00;;;;;13.80;96433.00;;;;8379948;28;20225;-71
2022/08/13 01:06:35;;;;;;;9.05;4.03;;;;;13.80;96435.00;;;;8373028;28;20255;-71
2022/08/13 01:10:41;;;;;;;4.30;3.90;;;;;13.70;96424.00;;;;8380917;28;20235;-71
2022/08/13 01:14:59;;;;;;;4.32;3.60;;;;;13.70;96426.00;;;;8372063;28;20223;-72
2022/08/13 01:19:06;;;;;;;9.63;4.20;;;;;13.70;96428.00;;;;8382457;28;20270;-72
2022/08/13 01:23:13;;;;;;;4.10;3.60;;;;;13.70;96421.00;;;;8378983;28;20281;-72
2022/08/13 01:27:20;;;;;;;4.70;3.87;;;;;13.60;96417.00;;;;8377476;28;21029;-72
2022/08/13 01:31:23;;;;;;;7.67;4.00;;;;;13.60;96419.00;;;;8381063;28;20234;-71
2022/08/13 01:35:27;;;;;;;4.73;3.63;;;;;13.70;96421.00;;;;8377803;28;21340;-72
2022/08/13 01:39:34;;;;;;;5.80;5.00;;;;;13.70;96416.00;;;;8372442;28;20293;-71
2022/08/13 01:43:42;;;;;;;4.75;4.35;;;;;13.70;96410.00;;;;8367291;28;20323;-72
2022/08/13 01:52:16;;;;;;;4.60;4.20;;;;;13.70;96418.00;;;;8375846;28;20716;-71
2022/08/13 01:56:23;;;;;;;11.00;4.28;;;;;13.70;96415.00;;;;8375083;28;20221;-71
2022/08/13 02:00:27;;;;;;;4.50;4.10;;;;;13.70;96402.00;;;;8370729;28;20222;-74
2022/08/13 02:04:32;;;;;;;4.70;4.30;;;;;13.60;96394.00;;;;8378542;28;20257;-73
2022/08/13 02:08:40;;;;;;;8.07;4.73;;;;;13.40;96398.00;;;;8381249;28;20235;-72
2022/08/13 02:12:46;;;;;;;5.45;4.93;;;;;13.40;96394.00;;;;8375974;28;20263;-71
2022/08/13 02:16:50;;;;;;;6.00;4.90;;;;;13.30;96391.00;;;;8366947;28;20227;-71
2022/08/13 02:20:57;;;;;;;5.37;4.87;;;;;13.30;96398.00;;;;8374603;28;20311;-71
2022/08/13 02:25:06;;;;;;;5.03;4.63;;;;;13.30;96397.00;;;;8380871;28;20220;-72
2022/08/13 02:29:18;;;;;;;8.07;5.00;;;;;13.30;96390.00;;;;8375471;28;20220;-72
2022/08/13 02:33:23;;;;;;;5.60;4.43;;;;;13.20;96396.00;;;;8372752;28;20236;-71
2022/08/13 02:37:28;;;;;;;5.17;4.30;;;;;13.20;96390.00;;;;8369747;28;20705;-71
2022/08/13 02:41:54;;;;;;;6.30;4.90;;;;;13.20;96388.00;;;;8372037;28;20226;-72
2022/08/13 02:46:00;;;;;;;6.03;5.13;;;;;13.20;96382.00;;;;8373115;28;20246;-72
2022/08/13 02:50:04;;;;;;;5.38;4.93;;;;;13.00;96375.00;;;;8380530;28;20277;-72
2022/08/13 02:54:08;;;;;;;5.03;4.63;;;;;12.90;96382.00;;;;8382184;28;20223;-71
2022/08/13 02:58:11;;;;;;;5.87;4.90;;;;;12.90;96374.00;;;;8373452;28;20224;-71
2022/08/13 03:02:16;;;;;;;5.53;4.90;;;;;12.90;96376.00;;;;8434974;22;20237;-72
2022/08/13 03:06:23;;;;;;;7.40;4.73;;;;;12.90;96368.00;;;;8346501;28;20719;-71
2022/08/13 03:10:28;;;;;;;8.07;5.10;;;;;12.90;96365.00;;;;8337088;28;20228;-70
2022/08/13 03:14:43;;;;;;;5.40;4.90;;;;;12.90;96370.00;;;;8340427;28;20298;-72
2022/08/13 03:18:53;;;;;;;7.93;5.07;;;;;12.90;96374.00;;;;8350534;28;20231;-73
2022/08/13 03:22:58;;;;;;;6.57;4.70;;;;;12.90;96375.00;;;;8367340;28;20236;-71
2022/08/13 03:27:02;;;;;;;8.23;4.90;;;;;12.90;96376.00;;;;8376883;28;20333;-72
2022/08/13 03:31:06;;;;;;;6.17;4.50;;;;;12.80;96376.00;;;;8372374;28;20224;-71
2022/08/13 03:35:15;;;;;;;5.73;4.93;;;;;12.80;96370.00;;;;8379216;28;20276;-73
2022/08/13 03:39:39;;;;;;;6.13;4.30;;;;;12.80;96374.00;;;;8365745;28;21076;-73
2022/08/13 03:43:45;;;;;;;5.38;4.88;;;;;12.80;96366.00;;;;8380421;28;20322;-71
2022/08/13 03:47:56;;;;;;;5.70;4.57;;;;;12.70;96362.00;;;;8372966;28;20232;-72
2022/08/13 03:52:01;;;;;;;5.13;4.70;;;;;12.70;96366.00;;;;8352257;28;20220;-73
2022/08/13 03:56:05;;;;;;;5.60;4.47;;;;;12.70;96372.00;;;;8361146;28;20230;-70
2022/08/13 04:00:14;;;;;;;8.57;5.27;;;;;12.70;96368.00;;;;8361378;28;20266;-70
2022/08/13 04:04:20;;;;;;;5.90;5.23;;;;;12.60;96364.00;;;;8358354;28;20303;-71
2022/08/13 04:08:34;;;;;;;4.57;4.20;;;;;12.60;96357.00;;;;8350178;28;20231;-70
2022/08/13 04:12:38;;;;;;;5.33;4.83;;;;;12.70;96359.00;;;;8351135;28;20371;-70
2022/08/13 04:16:42;;;;;;;4.68;4.28;;;;;12.70;96364.00;;;;8354877;28;20221;-72
2022/08/13 04:20:50;;;;;;;5.13;4.73;;;;;12.70;96360.00;;;;8359238;28;20242;-70
2022/08/13 04:24:56;;;;;;;5.07;4.63;;;;;12.70;96347.00;;;;8352444;28;20220;-70
2022/08/13 04:29:02;;;;;;;5.60;4.40;;;;;12.80;96350.00;;;;8353551;28;20220;-70
2022/08/13 04:33:05;;;;;;;10.03;5.00;;;;;12.90;96350.00;;;;8351826;28;20712;-71
2022/08/13 04:37:25;;;;;;;5.32;4.25;;;;;13.00;96347.00;;;;8350046;28;20721;-70
2022/08/13 04:41:38;;;;;;;5.23;4.77;;;;;13.10;96347.00;;;;8350174;28;20221;-69
2022/08/13 04:45:43;;;;;;;5.27;4.77;;;;;13.40;96353.00;;;;8352746;28;20270;-71
2022/08/13 04:49:51;;;;;;;10.00;4.80;;;;;13.60;96352.00;;;;8350259;28;20318;-70
2022/08/13 04:53:57;;;;;;;5.18;4.68;;;;;13.60;96369.00;;;;8353821;28;20224;-74
2022/08/13 04:58:04;;;;;;;5.10;4.60;;;;;13.70;96364.00;;;;8352656;28;20220;-72
2022/08/13 05:02:07;;;;;;;5.22;4.72;;;;;13.70;96365.00;;;;8343032;28;20327;-71
2022/08/13 05:06:17;;;;;;;7.05;4.53;;;;;14.20;96372.00;;;;8351256;28;20566;-71
2022/08/13 05:10:21;;;;;;;5.13;3.67;;;;;14.80;96376.00;;;;8351305;28;20659;-71
2022/08/13 05:14:35;;;;;;;6.00;3.35;;;;;15.20;96373.00;;;;8344201;28;20225;-71
2022/08/13 05:18:43;;;;;;;4.82;4.10;;;;;15.60;96374.00;;;;8354152;28;20308;-72
2022/08/13 05:22:46;;;;;;;4.45;3.55;;;;;15.80;96374.00;;;;8351168;28;20775;-71
2022/08/13 05:27:11;;;;;;;4.28;3.88;;;;;16.10;96374.00;;;;8339923;28;20260;-70
2022/08/13 05:31:19;;;;;;;7.40;3.47;;;;;16.20;96378.00;;;;8350274;28;20273;-71
2022/08/13 05:35:24;;;;;;;5.25;3.67;;;;;16.30;96391.00;;;;8351510;28;20306;-71
2022/08/13 05:39:48;;;;;;;5.20;3.88;;;;;16.50;96385.00;;;;8351148;28;20300;-70
2022/08/13 05:43:52;;;;;;;4.68;3.58;;;;;16.70;96388.00;;;;8339210;28;20227;-73
2022/08/13 05:47:56;;;;;;;4.30;3.50;;;;;17.00;96383.00;;;;8344513;28;20268;-71
2022/08/13 05:52:01;;;;;;;3.90;3.60;;;;;17.10;96389.00;;;;8347552;28;20257;-72
2022/08/13 05:56:25;;;;;;;5.13;3.60;;;;;17.30;96390.00;;;;8340104;28;20238;-71
2022/08/13 06:05:10;;;;;;;3.75;3.33;;;;;17.90;96393.00;;;;8348273;28;20306;-72
2022/08/13 06:09:17;;;;;;;4.40;3.25;;;;;18.20;96389.00;;;;8356937;28;20277;-74
2022/08/13 06:13:22;;;;;;;3.50;3.30;;;;;18.50;96387.00;;;;8348624;28;20224;-74
2022/08/13 06:17:45;;;;;;;3.55;3.35;;;;;18.70;96389.00;;;;8346132;28;20258;-74
2022/08/13 06:21:52;;;;;;;4.53;3.72;;;;;19.10;96392.00;;;;8346730;28;20244;-72
2022/08/13 06:26:04;;;;;;;4.65;3.55;;;;;19.30;96385.00;;;;8342015;28;20271;-73
2022/08/13 06:30:09;;;;;;;3.78;3.47;;;;;19.40;96393.00;;;;8348345;28;20674;-74
2022/08/13 06:34:13;;;;;;;4.70;3.53;;;;;19.60;96390.00;;;;8346522;28;20290;-67
2022/08/13 06:38:41;;;;;;;3.85;3.50;;;;;19.90;96388.00;;;;8347743;28;20221;-68
2022/08/13 06:42:53;;;;;;;5.25;3.28;;;;;20.20;96399.00;;;;8343787;28;20247;-68
2022/08/13 06:47:03;;;;;;;5.28;3.58;;;;;20.50;96403.00;;;;8346599;28;20232;-68
2022/08/13 06:51:08;;;;;;;3.28;3.00;;;;;20.90;96406.00;;;;8348766;28;20295;-70
2022/08/13 06:55:17;;;;;;;4.22;3.75;;;;;21.20;96402.00;;;;8347836;28;20294;-67
2022/08/13 06:59:42;;;;;;;3.70;3.40;;;;;21.40;96401.00;;;;8347864;28;20250;-67
2022/08/13 07:04:07;;;;;;;3.70;3.40;;;;;21.60;96397.00;;;;8345359;28;20225;-67
2022/08/13 07:08:31;;;;;;;5.15;2.92;;;;;21.90;96398.00;;;;8340526;28;20225;-67
2022/08/13 07:12:41;;;;;;;3.30;3.10;;;;;22.10;96394.00;;;;8345627;28;20243;-68
2022/08/13 07:16:46;;;;;;;3.20;3.00;;;;;22.50;96389.00;;;;8343053;28;20225;-68
2022/08/13 07:20:49;;;;;;;3.65;2.80;;;;;22.80;96405.00;;;;8337308;28;20315;-67
2022/08/13 07:24:53;;;;;;;3.70;3.40;;;;;23.10;96404.00;;;;8328589;28;20234;-67
2022/08/13 07:28:58;;;;;;;3.47;3.00;;;;;23.40;96406.00;;;;8342455;28;20332;-67
2022/08/13 07:33:03;;;;;;;6.20;3.17;;;;;23.80;96409.00;;;;8344592;28;20332;-68
2022/08/13 07:37:06;;;;;;;3.60;3.30;;;;;24.10;96413.00;;;;8340703;28;20584;-68
2022/08/13 07:41:12;;;;;;;5.97;3.30;;;;;24.30;96407.00;;;;8345726;28;20216;-69
2022/08/13 07:45:24;;;;;;;3.70;3.28;;;;;24.60;96403.00;;;;8339496;28;20232;-69
2022/08/13 07:49:48;;;;;;;5.85;3.40;;;;;24.70;96411.00;;;;8342318;28;20228;-69
2022/08/13 07:53:55;;;;;;;5.13;3.00;;;;;25.20;96407.00;;;;8348109;28;20229;-68
2022/08/13 07:58:03;;;;;;;5.13;3.22;;;;;25.20;96408.00;;;;8344570;28;20298;-70
2022/08/13 08:02:08;;;;;;;3.38;3.08;;;;;25.30;96408.00;;;;8329978;28;20236;-68
2022/08/13 08:06:25;;;;;;;3.22;2.85;;;;;25.70;96411.00;;;;8326416;28;20221;-68
2022/08/13 08:10:32;;;;;;;3.03;2.83;;;;;26.60;96413.00;;;;8308225;28;20841;-69
2022/08/13 08:14:36;;;;;;;5.95;3.20;;;;;26.90;96404.00;;;;8311035;28;20235;-66
2022/08/13 08:18:41;;;;;;;4.60;3.22;;;;;27.10;96417.00;;;;8312018;28;20268;-65
2022/08/13 08:23:05;;;;;;;3.15;2.88;;;;;27.30;96415.00;;;;8311084;28;20221;-66
2022/08/13 08:27:13;;;;;;;3.60;3.20;;;;;27.50;96418.00;;;;8312865;28;20245;-65
2022/08/13 08:31:39;;;;;;;7.18;2.72;;;;;27.30;96414.00;;;;8309002;28;20256;-65
2022/08/13 08:36:05;;;;;;;4.13;3.03;;;;;27.70;96414.00;;;;8318709;28;20284;-65
2022/08/13 08:44:58;;;;;;;4.05;3.20;;;;;28.20;96419.00;;;;8313189;28;20625;-81
2022/08/13 08:49:04;;;;;;;3.80;3.50;;;;;28.50;96409.00;;;;8317475;28;20221;-79
2022/08/13 08:53:29;;;;;;;3.28;3.00;;;;;28.90;96412.00;;;;8318363;28;20233;-80
2022/08/13 08:57:54;;;;;;;3.17;2.90;;;;;29.00;96410.00;;;;8319532;28;20593;-79
2022/08/13 09:01:59;;;;;;;5.00;2.90;;;;;29.10;96411.00;;;;8314083;28;20220;-80
2022/08/13 09:06:04;;;;;;;3.00;2.80;;;;;29.50;96418.00;;;;8350399;28;20319;-76
2022/08/13 09:10:24;;;;;;;3.20;2.90;;;;;29.80;96415.00;;;;8351094;28;20574;-67
2022/08/13 09:14:33;;;;;;;4.93;3.00;;;;;29.80;96409.00;;;;8348635;28;20311;-68
2022/08/13 09:18:36;;;;;;;8.40;3.00;;;;;30.10;96414.00;;;;8350074;28;20243;-69
2022/08/13 09:22:41;;;;;;;4.95;2.90;;;;;30.10;96408.00;;;;8347554;28;20224;-68
2022/08/13 09:26:57;;;;;;;3.70;2.83;;;;;30.50;96402.00;;;;8343082;28;20231;-68
2022/08/13 09:31:02;;;;;;;3.50;2.50;;;;;30.80;96407.00;;;;8343506;28;20252;-68
2022/08/13 09:35:08;;;;;;;3.15;2.92;;;;;30.50;96396.00;;;;8342607;28;20239;-67
2022/08/13 09:39:27;;;;;;;5.47;2.63;;;;;30.50;96396.00;;;;8344063;28;20580;-71
2022/08/13 09:43:44;;;;;;;3.70;2.92;;;;;30.10;96388.00;;;;8350900;28;20688;-69
2022/08/13 09:47:51;;;;;;;5.22;3.17;;;;;29.80;96390.00;;;;8349313;28;20224;-71
2022/08/13 09:52:14;;;;;;;5.00;2.45;;;;;29.00;96380.00;;;;8342961;28;20232;-68
2022/08/13 09:56:22;;;;;;;2.97;2.50;;;;;29.60;96382.00;;;;8345273;28;20246;-70
2022/08/13 10:00:31;;;;;;;2.60;2.40;;;;;30.00;96382.00;;;;8349062;28;20304;-70
2022/08/13 10:04:34;;;;;;;3.90;2.60;;;;;30.90;96371.00;;;;8338834;28;20246;-70
2022/08/13 10:08:38;;;;;;;2.63;2.42;;;;;32.10;96383.00;;;;8348522;28;20274;-71
2022/08/13 10:12:42;;;;;;;2.42;2.33;;;;;31.90;96367.00;;;;8345651;28;20228;-69
2022/08/13 10:16:52;;;;;;;2.40;2.08;;;;;32.80;96368.00;;;;8344186;28;20705;-71
2022/08/13 10:20:55;;;;;;;6.30;2.30;;;;;33.10;96374.00;;;;8348117;28;20227;-72
2022/08/13 10:24:59;;;;;;;2.10;2.00;;;;;32.90;96372.00;;;;8344132;28;20693;-72
2022/08/13 10:29:04;;;;;;;3.08;2.22;;;;;32.30;96376.00;;;;8337188;28;20221;-75
2022/08/13 10:33:29;;;;;;;4.57;2.05;;;;;32.60;96366.00;;;;8336424;28;20590;-72
2022/08/13 10:37:34;;;;;;;2.28;2.15;;;;;33.20;96366.00;;;;8338606;28;20224;-73
2022/08/13 10:41:57;;;;;;;2.70;2.03;;;;;32.60;96359.00;;;;8341976;28;20228;-72
2022/08/13 10:46:06;;;;;;;3.83;2.38;;;;;32.70;96355.00;;;;8344727;28;20310;-74
2022/08/13 10:50:18;;;;;;;2.20;2.00;;;;;32.90;96343.00;;;;8339864;28;20256;-73
2022/08/13 10:54:25;;;;;;;2.53;2.08;;;;;33.90;96340.00;;;;8350543;28;20226;-72
2022/08/13 10:58:33;;;;;;;2.33;2.20;;;;;34.00;96337.00;;;;8306177;28;20240;-72
2022/08/13 11:02:50;;;;;;;2.00;1.90;;;;;34.20;96339.00;;;;8342522;28;20224;-72
2022/08/13 11:06:55;;;;;;;4.00;1.98;;;;;34.60;96340.00;;;;8344454;28;20305;-76
2022/08/13 11:11:03;;;;;;;2.53;2.30;;;;;35.20;96333.00;;;;8338416;28;20780;-76
2022/08/13 11:15:26;;;;;;;2.00;1.90;;;;;35.20;96334.00;;;;8342284;28;20294;-73
2022/08/13 11:19:34;;;;;;;2.72;1.90;;;;;35.40;96335.00;;;;8334997;28;20240;-75
2022/08/13 11:23:56;;;;;;;2.28;2.17;;;;;35.20;96317.00;;;;8336423;28;20245;-75
2022/08/13 11:28:02;;;;;;;2.40;2.30;;;;;35.30;96324.00;;;;8333701;28;20232;-77
2022/08/13 11:32:06;;;;;;;1.90;1.83;;;;;35.20;96317.00;;;;8337339;28;20221;-76
2022/08/13 11:36:10;;;;;;;2.15;2.00;;;;;35.00;96321.00;;;;8341204;28;20282;-80
2022/08/13 11:40:17;;;;;;;2.08;1.90;;;;;34.20;96321.00;;;;8336849;28;20299;-76
2022/08/13 11:44:35;;;;;;;5.07;2.10;;;;;33.90;96326.00;;;;8333999;28;20225;-75
2022/08/13 11:48:39;;;;;;;2.45;2.10;;;;;33.80;96315.00;;;;8336199;28;20236;-76
2022/08/13 11:52:43;;;;;;;2.10;2.00;;;;;33.80;96314.00;;;;8345103;28;20224;-78
2022/08/13 11:56:48;;;;;;;2.70;2.50;;;;;32.40;96314.00;;;;8348231;28;20229;-77
2022/08/13 12:00:54;;;;;;;4.57;2.33;;;;;31.60;96319.00;;;;8341114;28;20770;-77
2022/08/13 12:04:57;;;;;;;2.08;1.75;;;;;31.70;96309.00;;;;8338792;28;20324;-77
2022/08/13 12:09:02;;;;;;;1.67;1.67;;;;;31.40;96301.00;;;;8343993;28;20695;-78
2022/08/13 12:13:27;;;;;;;2.60;1.70;;;;;31.80;96299.00;;;;8334933;28;20216;-77
2022/08/13 12:17:47;;;;;;;2.08;1.90;;;;;32.00;96298.00;;;;8343636;28;20380;-74
2022/08/13 12:21:54;;;;;;;2.60;1.85;;;;;31.60;96291.00;;;;8350380;28;20232;-76
2022/08/13 12:25:57;;;;;;;2.15;2.05;;;;;31.30;96291.00;;;;8350107;28;20232;-77
2022/08/13 12:30:09;;;;;;;2.10;1.98;;;;;31.30;96289.00;;;;8348787;28;20225;-76
2022/08/13 12:34:23;;;;;;;2.33;2.22;;;;;31.10;96290.00;;;;8353068;28;20307;-76
2022/08/13 12:38:33;;;;;;;2.30;2.20;;;;;31.30;96280.00;;;;8351308;28;20243;-75
2022/08/13 12:42:36;;;;;;;2.38;2.17;;;;;31.50;96272.00;;;;8352286;28;20232;-77
2022/08/13 12:46:41;;;;;;;6.60;2.00;;;;;31.70;96271.00;;;;8353413;28;20240;-77
2022/08/13 12:50:49;;;;;;;2.97;2.03;;;;;31.80;96261.00;;;;8350933;28;20225;-76
2022/08/13 12:54:53;;;;;;;5.88;2.00;;;;;32.30;96266.00;;;;8338268;28;20252;-75
2022/08/13 12:59:15;;;;;;;2.10;2.00;;;;;32.80;96262.00;;;;8344090;28;20231;-77
2022/08/13 13:03:21;;;;;;;2.20;2.10;;;;;32.50;96265.00;;;;8348156;28;20252;-75
2022/08/13 13:07:28;;;;;;;2.08;1.98;;;;;31.90;96260.00;;;;8344232;28;20224;-73
2022/08/13 13:11:53;;;;;;;1.92;1.80;;;;;31.60;96269.00;;;;8349632;28;20270;-72
2022/08/13 13:16:04;;;;;;;2.10;2.00;;;;;31.50;96264.00;;;;8348681;28;20256;-73
2022/08/13 13:20:28;;;;;;;2.65;2.45;;;;;31.80;96266.00;;;;8349998;28;20849;-72
2022/08/13 13:24:32;;;;;;;2.20;2.00;;;;;32.00;96262.00;;;;8345521;28;20279;-74
2022/08/13 13:28:56;;;;;;;1.90;1.77;;;;;32.10;96255.00;;;;8349045;28;20816;-70
2022/08/13 13:32:59;;;;;;;3.70;1.92;;;;;32.60;96252.00;;;;8351456;28;20220;-74
2022/08/13 13:37:10;;;;;;;1.90;1.80;;;;;33.10;96254.00;;;;8346393;28;20232;-74
2022/08/13 13:41:13;;;;;;;6.28;2.20;;;;;33.10;96240.00;;;;8338817;28;20224;-72
2022/08/13 13:45:17;;;;;;;2.80;1.73;;;;;33.10;96246.00;;;;8347447;28;20237;-71
2022/08/13 13:49:24;;;;;;;1.88;1.83;;;;;33.20;96240.00;;;;8340183;28;20758;-71
2022/08/13 13:53:33;;;;;;;2.88;1.90;;;;;33.40;96248.00;;;;8343775;28;20224;-72
2022/08/13 13:57:56;;;;;;;5.30;2.08;;;;;33.40;96252.00;;;;8346703;28;20250;-72
2022/08/13 14:02:20;;;;;;;2.97;2.13;;;;;32.80;96255.00;;;;8340380;28;20232;-73
2022/08/13 14:06:33;;;;;;;2.38;2.20;;;;;32.60;96256.00;;;;8358282;28;20239;-72
2022/08/13 14:10:42;;;;;;;3.15;2.30;;;;;32.50;96248.00;;;;8356500;28;20224;-73
2022/08/13 14:14:46;;;;;;;3.78;2.28;;;;;32.40;96247.00;;;;8345146;28;20213;-76
2022/08/13 14:18:51;;;;;;;2.30;2.10;;;;;32.10;96250.00;;;;8347511;28;20217;-76
2022/08/13 14:22:56;;;;;;;2.25;2.15;;;;;32.10;96240.00;;;;8349037;28;20252;-79
2022/08/13 14:27:01;;;;;;;3.05;2.00;;;;;32.30;96245.00;;;;8347157;28;20895;-74
2022/08/13 14:31:10;;;;;;;2.55;2.15;;;;;32.40;96240.00;;;;8320735;28;20335;-75
2022/08/13 14:35:16;;;;;;;2.53;2.13;;;;;32.40;96241.00;;;;8320483;28;20311;-75
2022/08/13 14:39:19;;;;;;;2.72;2.25;;;;;32.20;96242.00;;;;8331284;28;20220;-75
2022/08/13 14:43:27;;;;;;;2.67;2.40;;;;;32.10;96223.00;;;;8340478;28;20216;-74
2022/08/13 14:47:51;;;;;;;3.85;2.10;;;;;32.20;96223.00;;;;8342626;28;20301;-76
2022/08/13 14:51:57;;;;;;;2.20;2.10;;;;;33.10;96230.00;;;;8347245;28;20223;-76
2022/08/13 14:56:07;;;;;;;2.22;2.13;;;;;33.70;96229.00;;;;8330968;28;20332;-78
2022/08/13 15:00:14;;;;;;;2.28;2.17;;;;;33.80;96234.00;;;;8314157;28;20757;-77
2022/08/13 15:04:28;;;;;;;5.88;2.67;;;;;33.30;96228.00;;;;8332237;28;20246;-75
2022/08/13 15:08:31;;;;;;;3.72;2.40;;;;;33.10;96227.00;;;;8345901;28;20235;-79
2022/08/13 15:12:35;;;;;;;2.80;2.60;;;;;33.20;96219.00;;;;8338701;28;20570;-75
2022/08/13 15:16:42;;;;;;;2.40;2.30;;;;;33.80;96215.00;;;;8338539;28;20228;-76
2022/08/13 15:20:45;;;;;;;3.45;2.40;;;;;34.30;96217.00;;;;8337563;28;20221;-76
2022/08/13 15:25:03;;;;;;;2.60;2.50;;;;;34.90;96213.00;;;;8333932;28;21993;-73
2022/08/13 15:29:09;;;;;;;3.92;2.47;;;;;35.00;96202.00;;;;8339635;28;20579;-78
2022/08/13 15:33:24;;;;;;;2.65;2.22;;;;;34.70;96206.00;;;;8336859;28;20251;-70
2022/08/13 15:37:40;;;;;;;4.50;3.13;;;;;34.60;96205.00;;;;8337599;28;20311;-69
2022/08/13 15:42:05;;;;;;;8.48;2.80;;;;;34.50;96204.00;;;;8334765;28;20290;-68
2022/08/13 15:46:09;;;;;;;2.65;2.35;;;;;34.60;96194.00;;;;8342939;28;20232;-68
2022/08/13 15:50:25;;;;;;;2.80;2.60;;;;;34.30;96196.00;;;;8340847;28;20866;-69
2022/08/13 15:54:31;;;;;;;3.28;3.08;;;;;33.50;96196.00;;;;8333037;28;20252;-67
2022/08/13 15:58:35;;;;;;;4.30;2.65;;;;;32.90;96192.00;;;;8335033;28;20225;-67
2022/08/13 16:02:41;;;;;;;3.30;2.70;;;;;32.50;96185.00;;;;8342558;28;20228;-67
2022/08/13 16:06:53;;;;;;;3.70;2.88;;;;;32.00;96180.00;;;;8344328;28;20240;-67
2022/08/13 16:10:58;;;;;;;2.90;2.70;;;;;31.70;96184.00;;;;8343206;28;20235;-67
2022/08/13 16:15:02;;;;;;;2.88;2.63;;;;;31.20;96172.00;;;;8338009;28;20230;-67
2022/08/13 16:19:06;;;;;;;3.85;2.63;;;;;31.00;96171.00;;;;8343002;28;20319;-67
2022/08/13 16:23:31;;;;;;;10.27;3.00;;;;;30.70;96172.00;;;;8330708;28;20216;-64
2022/08/13 16:27:56;;;;;;;2.65;2.55;;;;;30.80;96169.00;;;;8335743;28;20271;-65
2022/08/13 16:32:01;;;;;;;2.78;2.67;;;;;31.20;96160.00;;;;8339592;28;20609;-66
2022/08/13 16:36:05;;;;;;;2.80;2.60;;;;;31.50;96155.00;;;;8345983;28;20259;-66
2022/08/13 16:40:15;;;;;;;5.82;3.35;;;;;31.70;96151.00;;;;8347558;28;20228;-66
2022/08/13 16:44:23;;;;;;;3.25;2.90;;;;;31.90;96153.00;;;;8342933;28;20227;-66
2022/08/13 16:48:44;;;;;;;2.72;2.58;;;;;32.00;96150.00;;;;8335603;28;20311;-66
2022/08/13 16:52:56;;;;;;;5.47;3.10;;;;;31.80;96155.00;;;;8338427;28;20274;-66
2022/08/13 16:57:02;;;;;;;3.42;3.13;;;;;31.40;96160.00;;;;8342110;28;20732;-65
2022/08/13 17:01:07;;;;;;;3.35;2.88;;;;;31.20;96159.00;;;;8341769;28;20299;-66
2022/08/13 17:09:35;;;;;;;3.50;3.20;;;;;31.10;96154.00;;;;8280161;28;20229;-66
2022/08/13 17:13:43;;;;;;;3.50;3.20;;;;;31.00;96151.00;;;;8281346;28;20234;-65
2022/08/13 17:17:48;;;;;;;3.45;3.15;;;;;30.90;96155.00;;;;8275361;28;20793;-66
2022/08/13 17:21:58;;;;;;;3.40;3.10;;;;;30.80;96157.00;;;;8284108;28;20316;-66
2022/08/13 17:26:04;;;;;;;3.08;2.88;;;;;30.60;96147.00;;;;8279736;28;20222;-66
2022/08/13 17:30:12;;;;;;;3.20;3.00;;;;;30.60;96141.00;;;;8280047;28;20226;-66
2022/08/13 17:34:17;;;;;;;4.68;3.35;;;;;30.40;96143.00;;;;8277468;28;20232;-66
2022/08/13 17:38:22;;;;;;;2.97;2.78;;;;;30.00;96147.00;;;;8283568;28;20671;-66
2022/08/13 17:42:25;;;;;;;3.42;3.20;;;;;29.60;96152.00;;;;8281670;28;20221;-66
2022/08/13 17:46:50;;;;;;;3.38;3.15;;;;;29.20;96153.00;;;;8279633;28;20292;-66
2022/08/13 17:50:55;;;;;;;4.00;3.58;;;;;28.70;96157.00;;;;8280165;28;20651;-66
2022/08/13 17:55:11;;;;;;;3.60;3.30;;;;;28.40;96167.00;;;;8281045;28;20234;-66
2022/08/13 17:59:15;;;;;;;8.23;4.03;;;;;28.00;96166.00;;;;8283710;28;20614;-65
2022/08/13 18:03:20;;;;;;;6.65;3.50;;;;;27.80;96169.00;;;;8297885;28;20686;-67
2022/08/13 18:07:28;;;;;;;3.63;3.33;;;;;27.60;96171.00;;;;8345315;28;20556;-66
2022/08/13 18:11:38;;;;;;;4.15;3.72;;;;;27.40;96173.00;;;;8350205;28;20221;-66
2022/08/13 18:15:45;;;;;;;4.82;3.67;;;;;27.20;96180.00;;;;8346390;28;20759;-66
2022/08/13 18:20:13;;;;;;;11.77;4.30;;;;;27.00;96181.00;;;;8343410;28;20220;-66
2022/08/13 18:24:16;;;;;;;4.57;4.07;;;;;26.70;96180.00;;;;8344788;28;20228;-66
2022/08/13 18:28:27;;;;;;;4.20;3.47;;;;;26.40;96181.00;;;;8340759;28;20886;-66
2022/08/13 18:32:34;;;;;;;4.55;3.80;;;;;26.20;96177.00;;;;8345700;28;20247;-66
2022/08/13 18:36:57;;;;;;;11.55;3.95;;;;;26.00;96182.00;;;;8343820;28;20239;-66
2022/08/13 18:41:03;;;;;;;3.95;3.65;;;;;25.80;96189.00;;;;8347205;28;20638;-66
2022/08/13 18:45:09;;;;;;;8.45;4.03;;;;;25.50;96190.00;;;;8342832;28;20231;-66
2022/08/13 18:49:32;;;;;;;5.82;3.92;;;;;25.20;96196.00;;;;8342622;28;20278;-73
2022/08/13 18:53:40;;;;;;;4.72;4.32;;;;;25.00;96200.00;;;;8334480;28;20220;-73
2022/08/13 18:57:47;;;;;;;7.25;4.30;;;;;24.80;96202.00;;;;8333999;28;20240;-71
2022/08/13 19:01:54;;;;;;;7.70;4.35;;;;;24.70;96208.00;;;;8336011;28;20339;-71
2022/08/13 19:05:58;;;;;;;5.57;4.28;;;;;24.60;96210.00;;;;8336520;28;20697;-72
2022/08/13 19:10:03;;;;;;;7.03;4.50;;;;;24.50;96208.00;;;;8341127;28;20343;-73
2022/08/13 19:14:07;;;;;;;6.10;4.70;;;;;24.40;96205.00;;;;8345412;28;20874;-71
2022/08/13 19:18:10;;;;;;;5.93;4.82;;;;;24.40;96204.00;;;;8346619;28;20648;-73
2022/08/13 19:22:22;;;;;;;6.78;4.65;;;;;24.40;96198.00;;;;8342911;28;20232;-72
2022/08/13 19:26:26;;;;;;;5.90;4.57;;;;;24.40;96204.00;;;;8337277;28;20239;-72
2022/08/13 19:30:33;;;;;;;9.80;4.70;;;;;24.30;96202.00;;;;8341962;28;20232;-74
2022/08/13 19:34:36;;;;;;;8.85;5.40;;;;;24.10;96208.00;;;;8340869;28;20678;-72
2022/08/13 19:38:46;;;;;;;5.03;4.50;;;;;23.90;96209.00;;;;8343640;28;20267;-73
2022/08/13 19:43:08;;;;;;;9.20;5.38;;;;;23.70;96208.00;;;;8338295;28;20281;-74
2022/08/13 19:47:14;;;;;;;7.35;6.07;;;;;23.60;96211.00;;;;8337321;28;20228;-73
2022/08/13 19:51:38;;;;;;;7.38;6.22;;;;;23.40;96203.00;;;;8333141;28;20220;-76
2022/08/13 19:55:51;;;;;;;8.07;6.68;;;;;23.30;96207.00;;;;8338666;28;20221;-75
2022/08/13 20:00:09;;;;;;;10.80;6.63;;;;;23.30;96203.00;;;;8334919;28;20738;-74
2022/08/13 20:04:19;;;;;;;10.18;6.43;;;;;23.20;96211.00;;;;8341916;28;20696;-71
2022/08/13 20:08:23;;;;;;;6.95;5.72;;;;;23.20;96215.00;;;;8335503;28;20259;-72
2022/08/13 20:12:38;;;;;;;6.28;5.20;;;;;23.20;96211.00;;;;8340523;28;20233;-72
2022/08/13 20:16:46;;;;;;;6.43;5.28;;;;;23.20;96203.00;;;;8337415;28;20303;-72
2022/08/13 20:20:52;;;;;;;6.15;5.60;;;;;23.10;96200.00;;;;8326362;28;20621;-73
2022/08/13 20:24:59;;;;;;;8.32;5.50;;;;;23.10;96199.00;;;;8323630;28;20723;-73
2022/08/13 20:29:23;;;;;;;7.20;5.60;;;;;23.00;96192.00;;;;8340909;28;20239;-73
2022/08/13 20:33:34;;;;;;;10.25;6.13;;;;;23.00;96200.00;;;;8338315;28;20274;-73
2022/08/13 20:37:41;;;;;;;7.55;6.03;;;;;22.90;96206.00;;;;8342346;28;20245;-72
2022/08/13 20:41:51;;;;;;;7.05;6.25;;;;;22.90;96201.00;;;;8345700;28;20744;-73
2022/08/13 20:45:54;;;;;;;6.88;5.47;;;;;22.80;96204.00;;;;8352881;28;20626;-74
2022/08/13 20:49:59;;;;;;;7.35;5.50;;;;;22.80;96207.00;;;;8350858;28;20259;-73
2022/08/13 20:54:06;;;;;;;6.75;5.60;;;;;22.60;96212.00;;;;8353380;28;20733;-72
2022/08/13 20:58:11;;;;;;;7.05;5.35;;;;;22.50;96212.00;;;;8346523;28;20615;-72
2022/08/13 21:02:34;;;;;;;7.32;6.40;;;;;22.30;96211.00;;;;8347459;28;20242;-72
2022/08/13 21:06:40;;;;;;;11.30;6.57;;;;;22.10;96206.00;;;;8351793;28;20693;-71
2022/08/13 21:10:52;;;;;;;7.65;5.97;;;;;22.00;96212.00;;;;8352012;28;20366;-72